sensor_id;sensor_type;location;lat;lon;timestamp;temperature;humidity
15937;DHT22;9163;48.818;8.976;2022-10-16T00:01:05;14.40;99.90
15937;DHT22;9163;48.818;8.976;2022-10-16T00:03:33;14.40;99.90
15937;DHT22;9163;48.818;8.976;2022-10-16T00:06:01;14.40;99.90
15937;DHT22;9163;48.818;8.976;2022-10-16T00:08:28;14.40;99.90
15937;DHT22;9163;48.818;8.976;2022-10-16T00:11:01;14.30;99.90
15937;DHT22;9163;48.818;8.976;2022-10-16T00:13:29;14.30;99.90
15937;DHT22;9163;48.818;8.976;2022-10-16T00:15:57;14.30;99.90
15937;DHT22;9163;48.818;8.976;2022-10-16T00:18:26;14.30;99.90
15937;DHT22;9163;48.818;8.976;2022-10-16T00:20:53;14.30;99.90
15937;DHT22;9163;48.818;8.976;2022-10-16T00:23:21;14.30;99.90
15937;DHT22;9163;48.818;8.976;2022-10-16T00:25:55;14.30;99.90
15937;DHT22;9163;48.818;8.976;2022-10-16T00:28:24;14.30;99.90
15937;DHT22;9163;48.818;8.976;2022-10-16T00:30:51;14.30;99.90
15937;DHT22;9163;48.818;8.976;2022-10-16T00:33:19;14.30;99.90
15937;DHT22;9163;48.818;8.976;2022-10-16T00:35:47;14.30;99.90
15937;DHT22;9163;48.818;8.976;2022-10-16T00:38:14;14.30;99.90
15937;DHT22;9163;48.818;8.976;2022-10-16T00:40:41;14.30;99.90
15937;DHT22;9163;48.818;8.976;2022-10-16T00:43:13;14.30;99.90
15937;DHT22;9163;48.818;8.976;2022-10-16T00:45:42;14.30;99.90
15937;DHT22;9163;48.818;8.976;2022-10-16T00:48:12;14.30;99.90
15937;DHT22;9163;48.818;8.976;2022-10-16T00:50:40;14.20;99.90
15937;DHT22;9163;48.818;8.976;2022-10-16T00:53:10;14.20;99.90
15937;DHT22;9163;48.818;8.976;2022-10-16T00:55:38;14.20;99.90
15937;DHT22;9163;48.818;8.976;2022-10-16T00:58:06;14.20;99.90
15937;DHT22;9163;48.818;8.976;2022-10-16T01:00:33;14.20;99.90
15937;DHT22;9163;48.818;8.976;2022-10-16T01:03:03;14.20;99.90
15937;DHT22;9163;48.818;8.976;2022-10-16T01:05:34;14.20;99.90
15937;DHT22;9163;48.818;8.976;2022-10-16T01:08:11;14.20;99.90
15937;DHT22;9163;48.818;8.976;2022-10-16T01:10:43;14.20;99.90
15937;DHT22;9163;48.818;8.976;2022-10-16T01:13:17;14.20;99.90
15937;DHT22;9163;48.818;8.976;2022-10-16T01:15:48;14.20;99.90
15937;DHT22;9163;48.818;8.976;2022-10-16T01:18:21;14.20;99.90
15937;DHT22;9163;48.818;8.976;2022-10-16T01:20:53;14.20;99.90
15937;DHT22;9163;48.818;8.976;2022-10-16T01:23:29;14.20;99.90
15937;DHT22;9163;48.818;8.976;2022-10-16T01:26:31;14.20;99.90
15937;DHT22;9163;48.818;8.976;2022-10-16T01:29:07;14.10;99.90
15937;DHT22;9163;48.818;8.976;2022-10-16T01:31:39;14.10;99.90
15937;DHT22;9163;48.818;8.976;2022-10-16T01:34:11;14.10;99.90
15937;DHT22;9163;48.818;8.976;2022-10-16T01:36:45;14.10;99.90
15937;DHT22;9163;48.818;8.976;2022-10-16T01:39:13;14.10;99.90
15937;DHT22;9163;48.818;8.976;2022-10-16T01:41:44;14.10;99.90
15937;DHT22;9163;48.818;8.976;2022-10-16T01:44:18;14.10;99.90
15937;DHT22;9163;48.818;8.976;2022-10-16T01:46:48;14.10;99.90
15937;DHT22;9163;48.818;8.976;2022-10-16T01:49:18;14.10;99.90
15937;DHT22;9163;48.818;8.976;2022-10-16T01:51:48;14.10;99.90
15937;DHT22;9163;48.818;8.976;2022-10-16T01:54:19;14.10;99.90
15937;DHT22;9163;48.818;8.976;2022-10-16T01:56:47;14.20;99.90
15937;DHT22;9163;48.818;8.976;2022-10-16T01:59:20;14.20;99.90
15937;DHT22;9163;48.818;8.976;2022-10-16T02:01:51;14.20;99.90
15937;DHT22;9163;48.818;8.976;2022-10-16T02:04:31;14.20;99.90
15937;DHT22;9163;48.818;8.976;2022-10-16T02:06:59;14.20;99.90
15937;DHT22;9163;48.818;8.976;2022-10-16T02:09:27;14.20;99.90
15937;DHT22;9163;48.818;8.976;2022-10-16T02:11:55;14.20;99.90
15937;DHT22;9163;48.818;8.976;2022-10-16T02:14:25;14.30;99.90
15937;DHT22;9163;48.818;8.976;2022-10-16T02:16:53;14.30;99.90
15937;DHT22;9163;48.818;8.976;2022-10-16T02:19:20;14.40;99.90
15937;DHT22;9163;48.818;8.976;2022-10-16T02:21:51;14.40;99.90
15937;DHT22;9163;48.818;8.976;2022-10-16T02:24:27;14.40;99.90
15937;DHT22;9163;48.818;8.976;2022-10-16T02:27:00;14.40;99.90
15937;DHT22;9163;48.818;8.976;2022-10-16T02:29:32;14.40;99.90
15937;DHT22;9163;48.818;8.976;2022-10-16T02:32:04;14.40;99.90
15937;DHT22;9163;48.818;8.976;2022-10-16T02:34:33;14.40;99.90
15937;DHT22;9163;48.818;8.976;2022-10-16T02:37:01;14.40;99.90
15937;DHT22;9163;48.818;8.976;2022-10-16T02:39:31;14.40;99.90
15937;DHT22;9163;48.818;8.976;2022-10-16T02:41:58;14.50;99.90
15937;DHT22;9163;48.818;8.976;2022-10-16T02:44:25;14.50;99.90
15937;DHT22;9163;48.818;8.976;2022-10-16T02:46:54;14.40;99.90
15937;DHT22;9163;48.818;8.976;2022-10-16T02:49:21;14.40;99.90
15937;DHT22;9163;48.818;8.976;2022-10-16T02:51:48;14.50;99.90
15937;DHT22;9163;48.818;8.976;2022-10-16T02:54:15;14.40;99.90
15937;DHT22;9163;48.818;8.976;2022-10-16T02:56:42;14.50;99.90
15937;DHT22;9163;48.818;8.976;2022-10-16T02:59:10;14.50;99.90
15937;DHT22;9163;48.818;8.976;2022-10-16T03:01:37;14.50;99.90
15937;DHT22;9163;48.818;8.976;2022-10-16T03:04:05;14.50;99.90
15937;DHT22;9163;48.818;8.976;2022-10-16T03:06:32;14.50;99.90
15937;DHT22;9163;48.818;8.976;2022-10-16T03:09:00;14.50;99.90
15937;DHT22;9163;48.818;8.976;2022-10-16T03:11:27;14.50;99.90
15937;DHT22;9163;48.818;8.976;2022-10-16T03:13:54;14.50;99.90
15937;DHT22;9163;48.818;8.976;2022-10-16T03:16:21;14.50;99.90
15937;DHT22;9163;48.818;8.976;2022-10-16T03:18:49;14.40;99.90
15937;DHT22;9163;48.818;8.976;2022-10-16T03:21:17;14.40;99.90
15937;DHT22;9163;48.818;8.976;2022-10-16T03:23:45;14.40;99.90
15937;DHT22;9163;48.818;8.976;2022-10-16T03:26:12;14.40;99.90
15937;DHT22;9163;48.818;8.976;2022-10-16T03:28:39;14.40;99.90
15937;DHT22;9163;48.818;8.976;2022-10-16T03:31:06;14.40;99.90
15937;DHT22;9163;48.818;8.976;2022-10-16T03:33:34;14.40;99.90
15937;DHT22;9163;48.818;8.976;2022-10-16T03:36:01;14.40;99.90
15937;DHT22;9163;48.818;8.976;2022-10-16T03:38:29;14.40;99.90
15937;DHT22;9163;48.818;8.976;2022-10-16T03:40:56;14.40;99.90
15937;DHT22;9163;48.818;8.976;2022-10-16T03:43:24;14.40;99.90
15937;DHT22;9163;48.818;8.976;2022-10-16T03:45:51;14.30;99.90
15937;DHT22;9163;48.818;8.976;2022-10-16T03:48:18;14.30;99.90
15937;DHT22;9163;48.818;8.976;2022-10-16T03:50:45;14.30;99.90
15937;DHT22;9163;48.818;8.976;2022-10-16T03:53:14;14.40;99.90
15937;DHT22;9163;48.818;8.976;2022-10-16T03:55:43;14.30;99.90
15937;DHT22;9163;48.818;8.976;2022-10-16T03:58:10;14.30;99.90
15937;DHT22;9163;48.818;8.976;2022-10-16T04:00:40;14.30;99.90
15937;DHT22;9163;48.818;8.976;2022-10-16T04:03:07;14.30;99.90
15937;DHT22;9163;48.818;8.976;2022-10-16T04:05:34;14.30;99.90
15937;DHT22;9163;48.818;8.976;2022-10-16T04:08:02;14.20;99.90
15937;DHT22;9163;48.818;8.976;2022-10-16T04:10:29;14.20;99.90
15937;DHT22;9163;48.818;8.976;2022-10-16T04:12:58;14.20;99.90
15937;DHT22;9163;48.818;8.976;2022-10-16T04:15:25;14.10;99.90
15937;DHT22;9163;48.818;8.976;2022-10-16T04:17:52;14.10;99.90
15937;DHT22;9163;48.818;8.976;2022-10-16T04:20:20;14.10;99.90
15937;DHT22;9163;48.818;8.976;2022-10-16T04:22:47;14.10;99.90
15937;DHT22;9163;48.818;8.976;2022-10-16T04:25:14;14.10;99.90
15937;DHT22;9163;48.818;8.976;2022-10-16T04:27:41;14.10;99.90
15937;DHT22;9163;48.818;8.976;2022-10-16T04:30:11;14.10;99.90
15937;DHT22;9163;48.818;8.976;2022-10-16T04:32:38;14.10;99.90
15937;DHT22;9163;48.818;8.976;2022-10-16T04:35:06;14.10;99.90
15937;DHT22;9163;48.818;8.976;2022-10-16T04:37:33;14.10;99.90
15937;DHT22;9163;48.818;8.976;2022-10-16T04:40:00;14.10;99.90
15937;DHT22;9163;48.818;8.976;2022-10-16T04:42:28;14.10;99.90
15937;DHT22;9163;48.818;8.976;2022-10-16T04:44:55;14.10;99.90
15937;DHT22;9163;48.818;8.976;2022-10-16T04:47:23;14.10;99.90
15937;DHT22;9163;48.818;8.976;2022-10-16T04:49:50;14.10;99.90
15937;DHT22;9163;48.818;8.976;2022-10-16T04:52:18;14.10;99.90
15937;DHT22;9163;48.818;8.976;2022-10-16T04:54:45;14.10;99.90
15937;DHT22;9163;48.818;8.976;2022-10-16T04:57:12;14.10;99.90
15937;DHT22;9163;48.818;8.976;2022-10-16T04:59:39;14.10;99.90
15937;DHT22;9163;48.818;8.976;2022-10-16T05:02:06;14.10;99.90
15937;DHT22;9163;48.818;8.976;2022-10-16T05:04:35;14.10;99.90
15937;DHT22;9163;48.818;8.976;2022-10-16T05:07:02;14.10;99.90
15937;DHT22;9163;48.818;8.976;2022-10-16T05:09:29;14.10;99.90
15937;DHT22;9163;48.818;8.976;2022-10-16T05:11:56;14.10;99.90
15937;DHT22;9163;48.818;8.976;2022-10-16T05:14:23;14.00;99.90
15937;DHT22;9163;48.818;8.976;2022-10-16T05:16:50;14.00;99.90
15937;DHT22;9163;48.818;8.976;2022-10-16T05:19:18;14.00;99.90
15937;DHT22;9163;48.818;8.976;2022-10-16T05:21:46;14.00;99.90
15937;DHT22;9163;48.818;8.976;2022-10-16T05:24:14;14.00;99.90
15937;DHT22;9163;48.818;8.976;2022-10-16T05:26:41;13.90;99.90
15937;DHT22;9163;48.818;8.976;2022-10-16T05:29:09;13.90;99.90
15937;DHT22;9163;48.818;8.976;2022-10-16T05:31:36;13.90;99.90
15937;DHT22;9163;48.818;8.976;2022-10-16T05:34:03;13.90;99.90
15937;DHT22;9163;48.818;8.976;2022-10-16T05:36:30;13.90;99.90
15937;DHT22;9163;48.818;8.976;2022-10-16T05:38:59;13.90;99.90
15937;DHT22;9163;48.818;8.976;2022-10-16T05:41:26;13.90;99.90
15937;DHT22;9163;48.818;8.976;2022-10-16T05:43:53;13.90;99.90
15937;DHT22;9163;48.818;8.976;2022-10-16T05:46:20;13.90;99.90
15937;DHT22;9163;48.818;8.976;2022-10-16T05:48:47;13.90;99.90
15937;DHT22;9163;48.818;8.976;2022-10-16T05:51:15;14.00;99.90
15937;DHT22;9163;48.818;8.976;2022-10-16T05:53:42;14.00;99.90
15937;DHT22;9163;48.818;8.976;2022-10-16T05:56:11;14.00;99.90
15937;DHT22;9163;48.818;8.976;2022-10-16T05:58:39;14.00;99.90
15937;DHT22;9163;48.818;8.976;2022-10-16T06:01:09;14.00;99.90
15937;DHT22;9163;48.818;8.976;2022-10-16T06:03:37;14.10;99.90
15937;DHT22;9163;48.818;8.976;2022-10-16T06:06:08;14.10;99.90
15937;DHT22;9163;48.818;8.976;2022-10-16T06:08:36;14.10;99.90
15937;DHT22;9163;48.818;8.976;2022-10-16T06:11:04;14.00;99.90
15937;DHT22;9163;48.818;8.976;2022-10-16T06:13:33;14.00;99.90
15937;DHT22;9163;48.818;8.976;2022-10-16T06:16:02;14.00;99.90
15937;DHT22;9163;48.818;8.976;2022-10-16T06:18:30;14.00;99.90
15937;DHT22;9163;48.818;8.976;2022-10-16T06:20:57;14.00;99.90
15937;DHT22;9163;48.818;8.976;2022-10-16T06:23:25;14.00;99.90
15937;DHT22;9163;48.818;8.976;2022-10-16T06:25:52;14.10;99.90
15937;DHT22;9163;48.818;8.976;2022-10-16T06:28:19;14.10;99.90
15937;DHT22;9163;48.818;8.976;2022-10-16T06:30:48;14.10;99.90
15937;DHT22;9163;48.818;8.976;2022-10-16T06:33:15;14.10;99.90
15937;DHT22;9163;48.818;8.976;2022-10-16T06:35:42;14.10;99.90
15937;DHT22;9163;48.818;8.976;2022-10-16T06:38:09;14.10;99.90
15937;DHT22;9163;48.818;8.976;2022-10-16T06:40:36;14.20;99.90
15937;DHT22;9163;48.818;8.976;2022-10-16T06:43:04;14.10;99.90
15937;DHT22;9163;48.818;8.976;2022-10-16T06:45:31;14.20;99.90
15937;DHT22;9163;48.818;8.976;2022-10-16T06:47:59;14.30;99.90
15937;DHT22;9163;48.818;8.976;2022-10-16T06:50:26;14.30;99.90
15937;DHT22;9163;48.818;8.976;2022-10-16T06:52:53;14.30;99.90
15937;DHT22;9163;48.818;8.976;2022-10-16T06:55:21;14.30;99.90
15937;DHT22;9163;48.818;8.976;2022-10-16T06:57:48;14.40;99.90
15937;DHT22;9163;48.818;8.976;2022-10-16T07:00:15;14.50;99.90
15937;DHT22;9163;48.818;8.976;2022-10-16T07:02:42;14.50;99.90
15937;DHT22;9163;48.818;8.976;2022-10-16T07:05:11;14.50;99.90
15937;DHT22;9163;48.818;8.976;2022-10-16T07:07:38;14.60;99.90
15937;DHT22;9163;48.818;8.976;2022-10-16T07:10:06;14.60;99.90
15937;DHT22;9163;48.818;8.976;2022-10-16T07:12:33;14.60;99.90
15937;DHT22;9163;48.818;8.976;2022-10-16T07:15:00;14.60;99.90
15937;DHT22;9163;48.818;8.976;2022-10-16T07:17:27;14.60;99.90
15937;DHT22;9163;48.818;8.976;2022-10-16T07:19:54;14.60;99.90
15937;DHT22;9163;48.818;8.976;2022-10-16T07:22:23;14.60;99.90
15937;DHT22;9163;48.818;8.976;2022-10-16T07:24:50;14.60;99.90
15937;DHT22;9163;48.818;8.976;2022-10-16T07:27:18;14.50;99.90
15937;DHT22;9163;48.818;8.976;2022-10-16T07:29:48;14.60;99.90
15937;DHT22;9163;48.818;8.976;2022-10-16T07:32:15;14.60;99.90
15937;DHT22;9163;48.818;8.976;2022-10-16T07:34:42;14.60;99.90
15937;DHT22;9163;48.818;8.976;2022-10-16T07:37:09;14.70;99.90
15937;DHT22;9163;48.818;8.976;2022-10-16T07:39:38;14.80;99.90
15937;DHT22;9163;48.818;8.976;2022-10-16T07:42:05;14.80;99.90
15937;DHT22;9163;48.818;8.976;2022-10-16T07:44:33;14.90;99.90
15937;DHT22;9163;48.818;8.976;2022-10-16T07:47:00;15.00;99.90
15937;DHT22;9163;48.818;8.976;2022-10-16T07:49:27;15.00;99.90
15937;DHT22;9163;48.818;8.976;2022-10-16T07:51:55;15.10;99.90
15937;DHT22;9163;48.818;8.976;2022-10-16T07:54:22;15.10;99.90
15937;DHT22;9163;48.818;8.976;2022-10-16T07:56:50;15.20;99.90
15937;DHT22;9163;48.818;8.976;2022-10-16T07:59:17;15.30;99.90
15937;DHT22;9163;48.818;8.976;2022-10-16T08:01:44;15.50;99.90
15937;DHT22;9163;48.818;8.976;2022-10-16T08:04:12;15.70;99.90
15937;DHT22;9163;48.818;8.976;2022-10-16T08:06:40;15.80;99.90
15937;DHT22;9163;48.818;8.976;2022-10-16T08:09:08;16.00;99.90
15937;DHT22;9163;48.818;8.976;2022-10-16T08:11:35;16.20;99.90
15937;DHT22;9163;48.818;8.976;2022-10-16T08:14:04;16.40;99.90
15937;DHT22;9163;48.818;8.976;2022-10-16T08:16:31;16.70;99.90
15937;DHT22;9163;48.818;8.976;2022-10-16T08:18:58;16.90;99.90
15937;DHT22;9163;48.818;8.976;2022-10-16T08:21:25;16.90;99.90
15937;DHT22;9163;48.818;8.976;2022-10-16T08:23:53;16.90;99.90
15937;DHT22;9163;48.818;8.976;2022-10-16T08:26:21;16.80;99.90
15937;DHT22;9163;48.818;8.976;2022-10-16T08:28:49;16.70;99.90
15937;DHT22;9163;48.818;8.976;2022-10-16T08:31:18;16.60;99.90
15937;DHT22;9163;48.818;8.976;2022-10-16T08:33:45;16.60;99.90
15937;DHT22;9163;48.818;8.976;2022-10-16T08:36:14;16.60;99.90
15937;DHT22;9163;48.818;8.976;2022-10-16T08:38:42;16.60;99.90
15937;DHT22;9163;48.818;8.976;2022-10-16T08:41:27;16.80;99.90
15937;DHT22;9163;48.818;8.976;2022-10-16T08:46:54;16.90;99.90
15937;DHT22;9163;48.818;8.976;2022-10-16T08:49:23;16.90;99.90
15937;DHT22;9163;48.818;8.976;2022-10-16T08:51:51;16.90;99.90
15937;DHT22;9163;48.818;8.976;2022-10-16T08:54:28;16.90;99.90
15937;DHT22;9163;48.818;8.976;2022-10-16T08:56:56;16.90;99.90
15937;DHT22;9163;48.818;8.976;2022-10-16T08:59:23;16.90;99.90
15937;DHT22;9163;48.818;8.976;2022-10-16T09:01:52;16.90;99.90
15937;DHT22;9163;48.818;8.976;2022-10-16T09:04:43;17.00;99.90
15937;DHT22;9163;48.818;8.976;2022-10-16T09:07:18;17.00;99.90
15937;DHT22;9163;48.818;8.976;2022-10-16T09:09:59;17.10;99.90
15937;DHT22;9163;48.818;8.976;2022-10-16T09:12:37;17.40;99.90
15937;DHT22;9163;48.818;8.976;2022-10-16T09:15:16;17.60;99.90
15937;DHT22;9163;48.818;8.976;2022-10-16T09:17:53;17.80;99.90
15937;DHT22;9163;48.818;8.976;2022-10-16T09:20:29;17.80;99.90
15937;DHT22;9163;48.818;8.976;2022-10-16T09:23:10;18.00;99.90
15937;DHT22;9163;48.818;8.976;2022-10-16T09:25:40;18.00;99.90
15937;DHT22;9163;48.818;8.976;2022-10-16T09:28:08;18.00;99.90
15937;DHT22;9163;48.818;8.976;2022-10-16T09:30:37;18.00;99.90
15937;DHT22;9163;48.818;8.976;2022-10-16T09:33:06;17.90;99.90
15937;DHT22;9163;48.818;8.976;2022-10-16T09:35:38;18.00;99.90
15937;DHT22;9163;48.818;8.976;2022-10-16T09:38:06;18.20;99.90
15937;DHT22;9163;48.818;8.976;2022-10-16T09:40:35;18.30;99.90
15937;DHT22;9163;48.818;8.976;2022-10-16T09:43:12;18.50;99.90
15937;DHT22;9163;48.818;8.976;2022-10-16T09:45:43;18.70;99.90
15937;DHT22;9163;48.818;8.976;2022-10-16T09:48:21;19.20;99.90
15937;DHT22;9163;48.818;8.976;2022-10-16T09:50:56;19.70;99.90
15937;DHT22;9163;48.818;8.976;2022-10-16T09:53:23;19.80;99.90
15937;DHT22;9163;48.818;8.976;2022-10-16T09:55:51;19.80;99.90
15937;DHT22;9163;48.818;8.976;2022-10-16T09:58:22;19.50;99.90
15937;DHT22;9163;48.818;8.976;2022-10-16T10:00:51;19.40;99.90
15937;DHT22;9163;48.818;8.976;2022-10-16T10:03:36;19.20;99.90
15937;DHT22;9163;48.818;8.976;2022-10-16T10:06:14;19.40;99.90
15937;DHT22;9163;48.818;8.976;2022-10-16T10:08:53;19.60;99.90
15937;DHT22;9163;48.818;8.976;2022-10-16T10:11:37;19.80;99.90
15937;DHT22;9163;48.818;8.976;2022-10-16T10:14:05;19.80;99.90
15937;DHT22;9163;48.818;8.976;2022-10-16T10:16:32;19.90;99.90
15937;DHT22;9163;48.818;8.976;2022-10-16T10:19:01;20.20;99.90
15937;DHT22;9163;48.818;8.976;2022-10-16T10:21:28;20.40;99.90
15937;DHT22;9163;48.818;8.976;2022-10-16T10:23:55;20.80;99.90
15937;DHT22;9163;48.818;8.976;2022-10-16T10:26:26;20.80;99.90
15937;DHT22;9163;48.818;8.976;2022-10-16T10:29:00;20.80;99.90
15937;DHT22;9163;48.818;8.976;2022-10-16T10:31:33;20.70;99.90
15937;DHT22;9163;48.818;8.976;2022-10-16T10:34:13;20.70;99.90
15937;DHT22;9163;48.818;8.976;2022-10-16T10:36:48;20.90;99.90
15937;DHT22;9163;48.818;8.976;2022-10-16T10:39:21;21.40;99.90
15937;DHT22;9163;48.818;8.976;2022-10-16T10:42:03;21.70;99.90
15937;DHT22;9163;48.818;8.976;2022-10-16T10:45:00;23.20;99.90
15937;DHT22;9163;48.818;8.976;2022-10-16T10:47:36;25.20;99.90
15937;DHT22;9163;48.818;8.976;2022-10-16T10:50:14;25.40;99.90
15937;DHT22;9163;48.818;8.976;2022-10-16T10:52:58;26.60;99.90
15937;DHT22;9163;48.818;8.976;2022-10-16T10:55:33;27.80;99.90
15937;DHT22;9163;48.818;8.976;2022-10-16T10:58:25;29.30;99.90
15937;DHT22;9163;48.818;8.976;2022-10-16T11:01:01;29.40;99.90
15937;DHT22;9163;48.818;8.976;2022-10-16T11:03:56;30.40;99.90
15937;DHT22;9163;48.818;8.976;2022-10-16T11:06:30;32.30;99.90
15937;DHT22;9163;48.818;8.976;2022-10-16T11:09:02;32.20;99.90
15937;DHT22;9163;48.818;8.976;2022-10-16T11:11:35;30.20;99.90
15937;DHT22;9163;48.818;8.976;2022-10-16T11:14:09;29.90;99.90
15937;DHT22;9163;48.818;8.976;2022-10-16T11:16:42;29.00;99.90
15937;DHT22;9163;48.818;8.976;2022-10-16T11:19:14;28.70;99.90
15937;DHT22;9163;48.818;8.976;2022-10-16T11:21:48;27.80;99.90
15937;DHT22;9163;48.818;8.976;2022-10-16T11:24:20;27.70;99.90
15937;DHT22;9163;48.818;8.976;2022-10-16T11:26:50;27.60;99.90
15937;DHT22;9163;48.818;8.976;2022-10-16T11:29:23;26.40;99.90
15937;DHT22;9163;48.818;8.976;2022-10-16T11:31:55;26.00;99.90
15937;DHT22;9163;48.818;8.976;2022-10-16T11:34:27;26.10;99.90
15937;DHT22;9163;48.818;8.976;2022-10-16T11:37:03;26.80;99.90
15937;DHT22;9163;48.818;8.976;2022-10-16T11:39:33;27.60;99.90
15937;DHT22;9163;48.818;8.976;2022-10-16T11:42:03;28.00;99.90
15937;DHT22;9163;48.818;8.976;2022-10-16T11:44:44;28.10;99.90
15937;DHT22;9163;48.818;8.976;2022-10-16T11:47:23;28.50;99.90
15937;DHT22;9163;48.818;8.976;2022-10-16T11:49:55;28.80;99.90
15937;DHT22;9163;48.818;8.976;2022-10-16T11:52:30;29.30;99.90
15937;DHT22;9163;48.818;8.976;2022-10-16T11:55:05;29.60;99.90
15937;DHT22;9163;48.818;8.976;2022-10-16T11:57:40;29.40;99.90
15937;DHT22;9163;48.818;8.976;2022-10-16T12:00:14;28.80;99.90
15937;DHT22;9163;48.818;8.976;2022-10-16T12:02:54;29.10;99.90
15937;DHT22;9163;48.818;8.976;2022-10-16T12:05:28;28.80;99.90
15937;DHT22;9163;48.818;8.976;2022-10-16T12:08:07;28.90;99.90
15937;DHT22;9163;48.818;8.976;2022-10-16T12:10:35;27.50;99.90
15937;DHT22;9163;48.818;8.976;2022-10-16T12:13:04;27.10;99.90
15937;DHT22;9163;48.818;8.976;2022-10-16T12:15:33;27.00;99.90
15937;DHT22;9163;48.818;8.976;2022-10-16T12:18:00;27.20;99.90
15937;DHT22;9163;48.818;8.976;2022-10-16T12:20:30;27.60;99.90
15937;DHT22;9163;48.818;8.976;2022-10-16T12:23:00;28.40;99.90
15937;DHT22;9163;48.818;8.976;2022-10-16T12:25:32;29.40;99.90
15937;DHT22;9163;48.818;8.976;2022-10-16T12:28:04;30.00;99.90
15937;DHT22;9163;48.818;8.976;2022-10-16T12:30:34;30.90;99.90
15937;DHT22;9163;48.818;8.976;2022-10-16T12:33:03;32.60;99.90
15937;DHT22;9163;48.818;8.976;2022-10-16T12:35:33;33.20;99.90
15937;DHT22;9163;48.818;8.976;2022-10-16T12:38:12;34.60;99.90
15937;DHT22;9163;48.818;8.976;2022-10-16T12:40:44;36.00;99.90
15937;DHT22;9163;48.818;8.976;2022-10-16T12:43:23;36.70;96.90
15937;DHT22;9163;48.818;8.976;2022-10-16T12:46:00;37.10;94.50
15937;DHT22;9163;48.818;8.976;2022-10-16T12:48:27;36.10;93.50
15937;DHT22;9163;48.818;8.976;2022-10-16T12:50:54;34.00;94.70
15937;DHT22;9163;48.818;8.976;2022-10-16T12:53:23;33.20;96.40
15937;DHT22;9163;48.818;8.976;2022-10-16T12:56:09;33.30;96.30
15937;DHT22;9163;48.818;8.976;2022-10-16T12:58:58;32.70;96.60
15937;DHT22;9163;48.818;8.976;2022-10-16T13:01:37;33.20;97.70
15937;DHT22;9163;48.818;8.976;2022-10-16T13:04:21;34.50;96.50
15937;DHT22;9163;48.818;8.976;2022-10-16T13:06:54;34.60;93.60
15937;DHT22;9163;48.818;8.976;2022-10-16T13:09:33;34.50;98.10
15937;DHT22;9163;48.818;8.976;2022-10-16T13:12:15;34.60;98.70
15937;DHT22;9163;48.818;8.976;2022-10-16T13:15:07;35.80;97.90
15937;DHT22;9163;48.818;8.976;2022-10-16T13:17:45;35.90;96.20
15937;DHT22;9163;48.818;8.976;2022-10-16T13:20:21;34.70;96.70
15937;DHT22;9163;48.818;8.976;2022-10-16T13:22:56;33.30;98.50
15937;DHT22;9163;48.818;8.976;2022-10-16T13:25:34;32.10;99.90
15937;DHT22;9163;48.818;8.976;2022-10-16T13:28:08;31.20;99.90
15937;DHT22;9163;48.818;8.976;2022-10-16T13:30:39;30.50;99.90
15937;DHT22;9163;48.818;8.976;2022-10-16T13:33:13;29.80;99.90
15937;DHT22;9163;48.818;8.976;2022-10-16T13:35:48;29.40;99.90
15937;DHT22;9163;48.818;8.976;2022-10-16T13:38:17;30.40;99.90
15937;DHT22;9163;48.818;8.976;2022-10-16T13:40:53;31.40;99.90
15937;DHT22;9163;48.818;8.976;2022-10-16T13:43:26;32.00;99.90
15937;DHT22;9163;48.818;8.976;2022-10-16T13:45:56;33.40;99.90
15937;DHT22;9163;48.818;8.976;2022-10-16T13:48:23;34.80;99.90
15937;DHT22;9163;48.818;8.976;2022-10-16T13:51:05;35.90;99.90
15937;DHT22;9163;48.818;8.976;2022-10-16T13:53:34;36.30;99.20
15937;DHT22;9163;48.818;8.976;2022-10-16T13:56:04;36.10;98.00
15937;DHT22;9163;48.818;8.976;2022-10-16T13:58:33;34.80;98.90
15937;DHT22;9163;48.818;8.976;2022-10-16T14:01:02;33.20;99.90
15937;DHT22;9163;48.818;8.976;2022-10-16T14:03:32;31.90;99.90
15937;DHT22;9163;48.818;8.976;2022-10-16T14:06:03;31.10;99.90
15937;DHT22;9163;48.818;8.976;2022-10-16T14:08:31;32.40;99.90
15937;DHT22;9163;48.818;8.976;2022-10-16T14:11:00;33.10;99.90
15937;DHT22;9163;48.818;8.976;2022-10-16T14:13:36;32.90;99.90
15937;DHT22;9163;48.818;8.976;2022-10-16T14:16:07;31.70;99.90
15937;DHT22;9163;48.818;8.976;2022-10-16T14:18:37;30.50;99.90
15937;DHT22;9163;48.818;8.976;2022-10-16T14:21:06;29.60;99.90
15937;DHT22;9163;48.818;8.976;2022-10-16T14:23:36;28.80;99.90
15937;DHT22;9163;48.818;8.976;2022-10-16T14:26:13;28.20;99.90
15937;DHT22;9163;48.818;8.976;2022-10-16T14:28:43;27.70;99.90
15937;DHT22;9163;48.818;8.976;2022-10-16T14:31:25;27.30;99.90
15937;DHT22;9163;48.818;8.976;2022-10-16T14:33:52;26.90;99.90
15937;DHT22;9163;48.818;8.976;2022-10-16T14:36:20;26.80;99.90
15937;DHT22;9163;48.818;8.976;2022-10-16T14:38:55;26.80;99.90
15937;DHT22;9163;48.818;8.976;2022-10-16T14:41:23;26.70;99.90
15937;DHT22;9163;48.818;8.976;2022-10-16T14:43:54;26.70;99.90
15937;DHT22;9163;48.818;8.976;2022-10-16T14:46:28;26.50;99.90
15937;DHT22;9163;48.818;8.976;2022-10-16T14:49:01;26.50;99.90
15937;DHT22;9163;48.818;8.976;2022-10-16T14:51:32;26.90;99.90
15937;DHT22;9163;48.818;8.976;2022-10-16T14:53:59;27.90;99.90
15937;DHT22;9163;48.818;8.976;2022-10-16T14:56:32;29.00;99.90
15937;DHT22;9163;48.818;8.976;2022-10-16T14:59:02;29.70;99.90
15937;DHT22;9163;48.818;8.976;2022-10-16T15:01:30;29.30;99.90
15937;DHT22;9163;48.818;8.976;2022-10-16T15:03:57;28.50;99.90
15937;DHT22;9163;48.818;8.976;2022-10-16T15:06:24;27.90;99.90
15937;DHT22;9163;48.818;8.976;2022-10-16T15:08:52;27.70;99.90
15937;DHT22;9163;48.818;8.976;2022-10-16T15:11:19;27.50;99.90
15937;DHT22;9163;48.818;8.976;2022-10-16T15:13:47;27.60;99.90
15937;DHT22;9163;48.818;8.976;2022-10-16T15:16:16;27.50;99.90
15937;DHT22;9163;48.818;8.976;2022-10-16T15:18:43;27.30;99.90
15937;DHT22;9163;48.818;8.976;2022-10-16T15:21:22;27.50;99.90
15937;DHT22;9163;48.818;8.976;2022-10-16T15:23:50;28.40;99.90
15937;DHT22;9163;48.818;8.976;2022-10-16T15:26:17;29.40;99.90
15937;DHT22;9163;48.818;8.976;2022-10-16T15:28:44;29.70;99.90
15937;DHT22;9163;48.818;8.976;2022-10-16T15:31:12;29.10;99.90
15937;DHT22;9163;48.818;8.976;2022-10-16T15:33:40;28.60;99.90
15937;DHT22;9163;48.818;8.976;2022-10-16T15:36:08;27.60;99.90
15937;DHT22;9163;48.818;8.976;2022-10-16T15:38:35;27.20;99.90
15937;DHT22;9163;48.818;8.976;2022-10-16T15:41:03;27.10;99.90
15937;DHT22;9163;48.818;8.976;2022-10-16T15:43:30;26.50;99.90
15937;DHT22;9163;48.818;8.976;2022-10-16T15:46:02;26.10;99.90
15937;DHT22;9163;48.818;8.976;2022-10-16T15:48:30;26.10;99.90
15937;DHT22;9163;48.818;8.976;2022-10-16T15:50:59;25.80;99.90
15937;DHT22;9163;48.818;8.976;2022-10-16T15:53:26;25.40;99.90
15937;DHT22;9163;48.818;8.976;2022-10-16T15:55:53;25.00;99.90
15937;DHT22;9163;48.818;8.976;2022-10-16T15:58:21;24.70;99.90
15937;DHT22;9163;48.818;8.976;2022-10-16T16:00:54;24.40;99.90
15937;DHT22;9163;48.818;8.976;2022-10-16T16:03:21;24.10;99.90
15937;DHT22;9163;48.818;8.976;2022-10-16T16:05:49;23.90;99.90
15937;DHT22;9163;48.818;8.976;2022-10-16T16:08:17;23.70;99.90